Terminal Aerodrome Forecast
Issued by NWS

Home | Current Version | Previous Version | Text Only | Print | Product List | Glossary On
Versions: 1 2 3 4 5 6 7 8 9 10 11 12 13
000
FTAK31 PAJN 160500
TAFAJN
TAF
PAJN 160540Z 1606/1706 09007KT P6SM FEW040 BKN060 BKN100
     FM161100 09004KT P6SM VCSH BKN040 OVC080
     FM161800 13008KT P6SM SCT040 BKN070 OVC090
     FM162000 22008KT P6SM SCT040 OVC090
     FM170200 09005KT P6SM OVC090=

USA.gov is the U.S. government's official web portal to all federal, state and local government web resources and services.